Time;durP1;ratioP1;P1;durP2;ratioP2;P2;SDS_P1;SDS_P2;PMS_P1;PMS_P2;Temp;Humidity;BMP_temperature;BMP_pressure;BME280_temperature;BME280_humidity;BME280_pressure;Samples;Min_cycle;Max_cycle;Signal;HPM_P1;HPM_P2
2022/08/14 00:00:24;;;;;;;8.82;4.70;;;;;;;18.51;51.61;99000.09;5072179;28;20017;-57
2022/08/14 00:02:50;;;;;;;10.00;5.18;;;;;;;18.36;52.81;98999.59;5070953;28;20490;-57
2022/08/14 00:05:17;;;;;;;8.48;5.43;;;;;;;18.32;53.16;98993.94;5071642;28;20582;-57
2022/08/14 00:07:43;;;;;;;9.10;5.13;;;;;;;18.36;53.34;98989.53;5072310;28;20036;-58
2022/08/14 00:10:11;;;;;;;10.02;5.30;;;;;;;18.34;53.60;98991.75;5072008;28;20039;-57
2022/08/14 00:12:39;;;;;;;12.02;5.43;;;;;;;18.25;53.94;98988.94;5072303;28;20024;-57
2022/08/14 00:15:09;;;;;;;14.95;5.47;;;;;;;18.22;54.39;98978.69;5075130;28;20517;-58
2022/08/14 00:17:34;;;;;;;13.63;5.40;;;;;;;18.24;54.82;98987.31;5072455;28;20493;-57
2022/08/14 00:20:00;;;;;;;10.80;5.22;;;;;;;18.03;54.97;98991.50;5071713;28;20029;-57
2022/08/14 00:22:25;;;;;;;9.27;5.10;;;;;;;17.89;54.95;98991.44;5072318;28;20032;-57
2022/08/14 00:24:51;;;;;;;7.28;4.95;;;;;;;17.71;55.67;98993.06;5071962;28;20430;-56
2022/08/14 00:27:16;;;;;;;7.35;5.10;;;;;;;17.60;56.59;98988.91;5071885;28;20032;-57
2022/08/14 00:29:42;;;;;;;7.72;5.47;;;;;;;17.66;56.63;98985.00;5071908;28;20036;-57
2022/08/14 00:32:08;;;;;;;15.32;6.20;;;;;;;17.67;56.69;98989.31;5072125;28;20395;-57
2022/08/14 00:34:33;;;;;;;9.80;5.28;;;;;;;17.80;57.03;98983.19;5071343;28;20028;-57
2022/08/14 00:36:58;;;;;;;8.52;5.20;;;;;;;17.63;56.09;98982.88;5072195;28;20056;-57
2022/08/14 00:39:24;;;;;;;9.95;5.47;;;;;;;17.60;57.89;98980.78;5071782;28;20035;-57
2022/08/14 00:41:49;;;;;;;10.10;5.63;;;;;;;17.58;57.38;98980.25;5071917;28;20028;-57
2022/08/14 00:44:15;;;;;;;11.10;5.80;;;;;;;17.71;57.50;98974.09;5071946;28;20394;-57
2022/08/14 00:46:40;;;;;;;11.30;5.90;;;;;;;17.74;57.66;98970.78;5072965;28;20025;-57
2022/08/14 00:49:07;;;;;;;17.30;5.97;;;;;;;17.79;58.58;98970.69;5070643;28;20035;-57
2022/08/14 00:51:33;;;;;;;10.40;5.75;;;;;;;18.01;57.68;98977.41;5070699;28;20059;-58
2022/08/14 00:53:59;;;;;;;7.65;5.53;;;;;;;18.02;57.60;98973.59;5071815;28;20494;-57
2022/08/14 00:56:24;;;;;;;9.60;5.70;;;;;;;18.09;57.71;98968.59;5070392;28;20028;-57
2022/08/14 00:58:50;;;;;;;9.82;6.18;;;;;;;18.13;57.51;98964.19;5070398;28;20442;-57
2022/08/14 01:01:17;;;;;;;7.80;5.80;;;;;;;18.08;57.81;98967.78;5075420;28;20029;-57
2022/08/14 01:03:43;;;;;;;8.82;5.85;;;;;;;18.03;58.06;98967.09;5070374;28;20029;-57
2022/08/14 01:06:09;;;;;;;8.38;5.82;;;;;;;17.92;58.49;98971.06;5071043;28;20043;-57
2022/08/14 01:08:36;;;;;;;10.70;5.82;;;;;;;17.94;58.59;98955.31;5071975;28;20062;-57
2022/08/14 01:11:01;;;;;;;9.43;6.13;;;;;;;17.93;58.68;98959.94;5072170;28;20031;-56
2022/08/14 01:13:33;;;;;;;13.93;6.00;;;;;;;17.88;58.54;98939.13;5079027;28;20431;-57
2022/08/14 01:16:00;;;;;;;9.13;5.82;;;;;;;17.86;59.06;98944.03;5074788;28;20356;-57
2022/08/14 01:21:16;;;;;;;10.73;6.25;;;;;;;17.92;59.29;98922.25;5071640;28;20046;-57
2022/08/14 01:23:43;;;;;;;9.13;6.80;;;;;;;18.14;58.42;98922.41;5075306;28;20036;-57
2022/08/14 01:26:09;;;;;;;10.13;6.47;;;;;;;18.19;58.13;98908.75;5073920;28;20360;-57
2022/08/14 01:28:36;;;;;;;9.68;6.50;;;;;;;18.10;58.33;98910.56;5075228;28;20497;-57
2022/08/14 01:31:04;;;;;;;9.38;6.25;;;;;;;17.92;59.41;98911.41;5077191;28;20032;-57
2022/08/14 01:33:30;;;;;;;9.95;5.85;;;;;;;17.72;60.21;98910.63;5075149;28;20479;-56
2022/08/14 01:35:56;;;;;;;9.68;5.70;;;;;;;17.55;60.75;98910.41;5083185;28;20077;-58
2022/08/14 01:38:32;;;;;;;9.68;6.38;;;;;;;17.38;61.58;98909.03;5079435;28;20498;-57
2022/08/14 01:40:58;;;;;;;10.40;6.22;;;;;;;17.14;62.22;98901.00;5074117;28;20040;-57
2022/08/14 01:43:29;;;;;;;7.72;5.93;;;;;;;17.12;62.00;98895.06;5073855;28;20383;-57
2022/08/14 01:45:56;;;;;;;8.60;5.88;;;;;;;17.27;62.05;98891.31;5083042;28;20099;-57
2022/08/14 01:48:22;;;;;;;11.27;6.30;;;;;;;17.10;62.40;98893.75;5074602;28;20425;-57
2022/08/14 01:50:48;;;;;;;7.53;6.20;;;;;;;16.97;62.90;98882.56;5074342;28;20096;-57
2022/08/14 01:53:14;;;;;;;13.18;6.47;;;;;;;17.08;63.18;98885.94;5074703;28;20039;-57
2022/08/14 01:55:39;;;;;;;9.32;6.15;;;;;;;17.23;61.59;98880.28;5074499;28;20020;-57
2022/08/14 01:58:05;;;;;;;8.73;5.93;;;;;;;17.34;61.67;98878.19;5074714;28;20032;-57
2022/08/14 02:00:30;;;;;;;11.88;6.90;;;;;;;17.21;61.90;98878.97;5074421;28;20020;-57
2022/08/14 02:02:57;;;;;;;10.73;6.47;;;;;;;17.19;61.85;98876.53;5074004;28;20028;-57
2022/08/14 02:05:28;;;;;;;10.32;6.65;;;;;;;17.15;62.91;98880.16;5072661;28;20446;-57
2022/08/14 02:07:54;;;;;;;8.52;6.05;;;;;;;17.19;62.38;98886.56;5074422;28;20029;-58
2022/08/14 02:10:20;;;;;;;9.73;6.88;;;;;;;17.13;62.73;98882.34;5074548;28;20033;-57
2022/08/14 02:12:46;;;;;;;12.90;6.80;;;;;;;16.86;64.67;98877.59;5073463;28;20039;-57
2022/08/14 02:15:11;;;;;;;11.05;7.30;;;;;;;16.98;65.15;98883.38;5074340;28;20051;-57
2022/08/14 02:17:37;;;;;;;8.15;6.50;;;;;;;17.12;64.26;98880.72;5079057;28;20474;-57
2022/08/14 02:20:03;;;;;;;12.18;7.00;;;;;;;17.13;65.11;98872.31;5072581;28;20038;-57
2022/08/14 02:22:28;;;;;;;14.32;6.97;;;;;;;17.15;65.42;98877.44;5074577;28;20024;-57
2022/08/14 02:24:54;;;;;;;12.80;7.50;;;;;;;17.39;65.57;98877.31;5074157;28;20386;-57
2022/08/14 02:27:19;;;;;;;11.68;7.07;;;;;;;17.27;65.74;98885.91;5073138;28;20029;-57
2022/08/14 02:29:45;;;;;;;10.73;7.68;;;;;;;17.30;66.16;98887.22;5074094;28;20028;-57
2022/08/14 02:32:10;;;;;;;9.00;6.70;;;;;;;17.28;66.60;98887.53;5073811;28;20029;-58
2022/08/14 02:34:37;;;;;;;13.90;6.43;;;;;;;16.81;65.58;98892.00;5072712;28;20028;-57
2022/08/14 02:37:10;;;;;;;10.80;6.47;;;;;;;16.91;65.26;98891.06;5072652;28;20032;-57
2022/08/14 02:39:38;;;;;;;8.80;6.97;;;;;;;16.92;66.34;98898.84;5074041;28;20382;-57
2022/08/14 02:42:06;;;;;;;9.73;7.03;;;;;;;16.89;68.29;98894.03;5074164;28;20395;-57
2022/08/14 02:44:33;;;;;;;14.10;7.60;;;;;;;16.96;67.73;98893.69;5073909;28;20024;-58
2022/08/14 02:46:59;;;;;;;12.13;7.90;;;;;;;17.19;67.57;98886.56;5074190;28;20048;-57
2022/08/14 02:49:27;;;;;;;11.45;7.70;;;;;;;17.12;67.29;98883.44;5073422;28;20031;-57
2022/08/14 02:51:54;;;;;;;9.75;7.78;;;;;;;17.09;67.36;98884.03;5073700;28;20596;-57
2022/08/14 02:54:21;;;;;;;10.32;8.00;;;;;;;17.01;68.00;98889.00;5072739;28;20033;-57
2022/08/14 02:56:47;;;;;;;10.93;7.88;;;;;;;17.22;67.90;98885.97;5073839;28;20029;-58
2022/08/14 02:59:14;;;;;;;10.38;7.88;;;;;;;17.16;67.84;98881.75;5073645;28;20039;-57
2022/08/14 03:01:40;;;;;;;12.50;8.02;;;;;;;17.03;68.86;98884.09;5072251;28;20028;-58
2022/08/14 03:04:06;;;;;;;12.85;8.07;;;;;;;16.96;69.01;98877.44;5074042;28;20025;-58
2022/08/14 03:06:31;;;;;;;10.20;7.93;;;;;;;16.97;68.54;98879.88;5072906;28;20040;-58
2022/08/14 03:08:58;;;;;;;14.57;8.05;;;;;;;17.04;68.68;98874.88;5072031;28;20552;-58
2022/08/14 03:11:23;;;;;;;9.52;7.53;;;;;;;16.90;68.03;98871.31;5073487;28;20378;-57
2022/08/14 03:13:50;;;;;;;10.88;7.45;;;;;;;16.78;68.18;98863.63;5073592;28;20424;-58
2022/08/14 03:16:20;;;;;;;9.95;8.05;;;;;;;16.50;71.34;98876.13;5073388;28;20115;-58
2022/08/14 03:18:46;;;;;;;11.57;8.40;;;;;;;16.52;71.47;98863.09;5077730;28;20024;-58
2022/08/14 03:21:16;;;;;;;11.07;7.82;;;;;;;16.68;71.03;98871.03;5072581;28;20036;-57
2022/08/14 03:23:43;;;;;;;14.48;8.82;;;;;;;16.76;70.11;98863.06;5073330;28;20103;-58
2022/08/14 03:26:10;;;;;;;11.32;7.95;;;;;;;16.65;69.95;98871.59;5073611;28;20029;-57
2022/08/14 03:28:39;;;;;;;13.40;8.35;;;;;;;16.54;71.42;98865.53;5073325;28;20112;-57
2022/08/14 03:31:05;;;;;;;10.52;8.70;;;;;;;16.66;71.37;98873.22;5072989;28;20028;-57
2022/08/14 03:33:30;;;;;;;10.27;8.23;;;;;;;16.58;70.13;98859.25;5072864;28;20035;-58
2022/08/14 03:35:56;;;;;;;12.25;8.57;;;;;;;16.62;70.27;98854.06;5071070;28;20028;-58
2022/08/14 03:38:21;;;;;;;13.80;8.45;;;;;;;16.67;69.12;98845.06;5072763;28;20028;-58
2022/08/14 03:40:46;;;;;;;12.38;8.93;;;;;;;16.53;70.69;98848.50;5072803;28;20054;-57
2022/08/14 03:43:12;;;;;;;12.18;8.75;;;;;;;16.66;70.68;98840.75;5072691;28;20043;-57
2022/08/14 03:45:38;;;;;;;12.90;9.60;;;;;;;16.66;72.14;98838.06;5069414;28;20020;-57
2022/08/14 03:48:13;;;;;;;14.25;8.98;;;;;;;16.73;70.92;98842.00;5071283;28;20043;-57
2022/08/14 03:50:40;;;;;;;13.75;9.15;;;;;;;16.64;72.13;98845.66;5072241;28;20024;-57
2022/08/14 03:53:05;;;;;;;11.73;7.97;;;;;;;16.80;71.11;98847.09;5076300;28;20028;-57
2022/08/14 03:55:31;;;;;;;16.85;9.30;;;;;;;16.60;72.42;98838.13;5086838;28;20025;-57
2022/08/14 03:57:57;;;;;;;12.60;9.13;;;;;;;16.40;73.47;98843.81;5071308;28;20021;-57
2022/08/14 04:00:22;;;;;;;14.35;9.50;;;;;;;16.54;73.22;98838.47;5071202;28;20146;-57
2022/08/14 04:02:48;;;;;;;14.80;9.30;;;;;;;16.55;73.26;98832.78;5072387;28;20044;-57
2022/08/14 04:05:13;;;;;;;15.57;9.55;;;;;;;16.39;73.49;98832.16;5071810;28;20052;-58
2022/08/14 04:07:39;;;;;;;13.07;9.73;;;;;;;16.48;73.16;98835.03;5079925;28;20033;-57
2022/08/14 04:10:06;;;;;;;13.15;9.48;;;;;;;16.55;72.88;98830.09;5072412;28;20036;-57
2022/08/14 04:12:32;;;;;;;15.20;9.48;;;;;;;16.49;73.34;98841.25;5072252;28;20024;-57
2022/08/14 04:14:58;;;;;;;13.15;9.25;;;;;;;16.47;73.24;98838.03;5071137;28;20025;-57
2022/08/14 04:17:23;;;;;;;15.35;9.88;;;;;;;16.39;73.08;98832.16;5071993;28;20391;-58
2022/08/14 04:19:49;;;;;;;17.02;9.68;;;;;;;16.18;73.32;98834.31;5071834;28;20074;-57
2022/08/14 04:22:14;;;;;;;12.15;8.32;;;;;;;16.12;71.72;98835.47;5072501;28;20043;-58
2022/08/14 04:24:40;;;;;;;11.77;8.50;;;;;;;16.02;73.51;98841.00;5072223;28;20387;-58
2022/08/14 04:27:09;;;;;;;15.07;9.85;;;;;;;15.99;73.74;98843.47;5070776;28;20375;-57
2022/08/14 04:29:41;;;;;;;18.13;9.60;;;;;;;16.13;73.33;98844.41;5072103;28;20025;-58
2022/08/14 04:32:07;;;;;;;12.07;9.43;;;;;;;16.32;73.06;98841.72;5072021;28;20036;-57
2022/08/14 04:34:33;;;;;;;11.98;8.93;;;;;;;16.63;71.07;98830.53;5071679;28;20050;-58
2022/08/14 04:45:13;;;;;;;16.20;9.93;;;;;;;18.80;65.99;98816.38;5071304;28;20090;-59
2022/08/14 04:50:23;;;;;;;13.55;9.00;;;;;;;20.74;59.49;98835.69;5071228;28;20170;-58
2022/08/14 04:52:48;;;;;;;12.32;8.95;;;;;;;21.32;56.29;98828.94;5071880;28;20013;-58
2022/08/14 04:55:14;;;;;;;13.00;9.38;;;;;;;21.29;56.39;98834.22;5072266;28;20514;-58
2022/08/14 04:57:39;;;;;;;15.90;10.50;;;;;;;19.33;63.79;98821.06;5081229;28;20078;-58
2022/08/14 05:00:06;;;;;;;12.77;9.38;;;;;;;19.49;63.66;98819.53;5075428;28;20467;-58
2022/08/14 05:02:33;;;;;;;12.90;9.27;;;;;;;20.44;61.11;98823.78;5075750;28;20025;-57
2022/08/14 05:04:59;;;;;;;18.40;9.73;;;;;;;23.06;54.14;98818.34;5073788;28;20539;-58
2022/08/14 05:07:24;;;;;;;17.15;9.48;;;;;;;23.46;51.86;98835.81;5075893;28;20482;-57
2022/08/14 05:09:49;;;;;;;11.98;9.00;;;;;;;23.19;49.99;98822.75;5074794;28;20020;-58
2022/08/14 05:12:15;;;;;;;11.98;8.85;;;;;;;23.71;48.27;98824.91;5075925;28;20032;-58
2022/08/14 05:14:40;;;;;;;11.32;8.38;;;;;;;23.35;48.79;98826.44;5075406;28;20024;-57
2022/08/14 05:17:06;;;;;;;13.27;9.02;;;;;;;24.17;47.61;98822.94;5078177;28;20039;-58
2022/08/14 05:19:31;;;;;;;16.42;10.05;;;;;;;23.41;49.62;98822.34;5079428;28;20047;-57
2022/08/14 05:21:57;;;;;;;13.85;8.85;;;;;;;24.76;46.14;98818.88;5075394;28;20031;-57
2022/08/14 05:24:23;;;;;;;11.18;9.13;;;;;;;25.75;43.97;98813.75;5076008;28;20029;-57
2022/08/14 05:26:48;;;;;;;15.25;9.88;;;;;;;25.79;43.73;98814.66;5074184;28;20060;-57
2022/08/14 05:29:15;;;;;;;23.27;9.93;;;;;;;26.44;42.15;98806.00;5075562;28;20036;-58
2022/08/14 05:31:40;;;;;;;13.38;9.50;;;;;;;26.61;42.04;98805.63;5075154;28;20116;-56
2022/08/14 05:34:08;;;;;;;11.98;8.95;;;;;;;25.85;43.46;98807.75;5075536;28;20433;-56
2022/08/14 05:36:34;;;;;;;13.23;9.60;;;;;;;26.83;41.42;98804.16;5073554;28;20028;-56
2022/08/14 05:38:59;;;;;;;13.98;9.15;;;;;;;26.62;42.15;98807.22;5075480;28;20021;-56
2022/08/14 05:41:25;;;;;;;13.65;9.40;;;;;;;26.83;42.53;98801.41;5073907;28;20028;-56
2022/08/14 05:43:51;;;;;;;16.60;10.13;;;;;;;26.53;43.51;98811.31;5075022;28;20513;-56
2022/08/14 05:46:18;;;;;;;14.20;9.43;;;;;;;26.50;43.58;98803.78;5073793;28;20032;-56
2022/08/14 05:48:47;;;;;;;14.75;9.63;;;;;;;27.54;41.95;98806.69;5078024;28;20029;-56
2022/08/14 05:51:13;;;;;;;14.80;9.65;;;;;;;28.14;40.40;98808.91;5074347;28;20471;-57
2022/08/14 05:53:38;;;;;;;16.70;9.35;;;;;;;28.07;41.30;98804.06;5074997;28;20124;-56
2022/08/14 05:56:04;;;;;;;16.45;9.90;;;;;;;28.59;40.09;98810.75;5075072;28;20059;-57
2022/08/14 05:58:30;;;;;;;15.18;9.45;;;;;;;28.59;39.84;98799.72;5081279;28;20032;-57
2022/08/14 06:00:56;;;;;;;16.83;9.25;;;;;;;28.59;39.57;98798.94;5074493;28;20352;-57
2022/08/14 06:03:22;;;;;;;13.98;9.10;;;;;;;28.72;39.26;98802.25;5074553;28;20027;-57
2022/08/14 06:05:52;;;;;;;14.38;9.30;;;;;;;28.77;39.54;98799.97;5077223;28;20048;-57
2022/08/14 06:08:24;;;;;;;13.65;9.80;;;;;;;28.89;39.32;98798.16;5074149;28;20110;-57
2022/08/14 06:10:51;;;;;;;11.23;9.35;;;;;;;29.49;37.93;98795.28;5074927;28;20378;-57
2022/08/14 06:13:17;;;;;;;16.92;8.98;;;;;;;28.80;39.53;98793.69;5074486;28;20028;-58
2022/08/14 06:15:43;;;;;;;11.43;8.95;;;;;;;29.65;38.50;98806.06;5088527;28;20107;-56
2022/08/14 06:18:08;;;;;;;13.43;9.82;;;;;;;29.62;38.50;98793.03;5056623;28;20059;-56
2022/08/14 06:20:34;;;;;;;14.23;9.57;;;;;;;29.39;38.59;98788.47;5074021;28;20395;-56
2022/08/14 06:22:59;;;;;;;13.07;8.75;;;;;;;28.85;39.91;98789.81;5073252;28;20028;-56
2022/08/14 06:25:25;;;;;;;17.30;9.90;;;;;;;29.15;39.24;98789.00;5074406;28;20471;-56
2022/08/14 06:27:50;;;;;;;16.77;9.60;;;;;;;29.21;39.10;98790.28;5074157;28;20474;-56
2022/08/14 06:30:18;;;;;;;12.20;9.18;;;;;;;28.78;40.10;98786.97;5074586;28;20495;-57
2022/08/14 06:32:44;;;;;;;15.45;10.35;;;;;;;28.39;40.84;98784.47;5074382;28;20032;-57
2022/08/14 06:35:10;;;;;;;16.67;9.65;;;;;;;28.76;40.36;98786.56;5073953;28;20050;-56
2022/08/14 06:37:46;;;;;;;12.13;9.57;;;;;;;28.87;40.33;98784.72;5077332;28;20025;-56
2022/08/14 06:40:13;;;;;;;14.35;9.27;;;;;;;29.81;38.82;98772.72;5073990;28;20079;-57
2022/08/14 06:42:39;;;;;;;12.63;9.35;;;;;;;30.23;37.88;98777.75;5073892;28;20032;-56
2022/08/14 06:45:05;;;;;;;13.38;9.77;;;;;;;30.93;36.81;98780.53;5073727;28;20021;-56
2022/08/14 06:47:37;;;;;;;16.52;9.43;;;;;;;30.98;36.49;98765.50;5073932;28;20043;-57
2022/08/14 06:50:04;;;;;;;15.75;9.88;;;;;;;29.65;38.56;98764.66;5073407;28;20429;-57
2022/08/14 06:52:29;;;;;;;17.13;10.45;;;;;;;29.88;38.85;98765.28;5073866;28;20025;-56
2022/08/14 06:54:56;;;;;;;14.07;9.77;;;;;;;31.21;36.44;98756.88;5057708;28;20489;-56
2022/08/14 06:57:22;;;;;;;14.55;9.63;;;;;;;31.34;36.61;98760.84;5072842;28;20028;-57
2022/08/14 06:59:47;;;;;;;15.93;10.35;;;;;;;31.53;35.81;98752.19;5077387;28;20028;-57
2022/08/14 07:07:41;;;;;;;16.05;9.65;;;;;;;33.13;33.44;98754.22;5073600;28;20078;-56
2022/08/14 07:10:07;;;;;;;15.98;9.48;;;;;;;32.12;34.89;98753.75;5072298;28;20028;-56
2022/08/14 07:12:33;;;;;;;12.80;8.57;;;;;;;32.33;34.68;98741.84;5072431;28;20028;-56
2022/08/14 07:14:58;;;;;;;13.25;8.73;;;;;;;32.73;33.79;98734.97;5073508;28;20384;-56
2022/08/14 07:17:24;;;;;;;13.40;8.95;;;;;;;32.94;33.89;98753.50;5073236;28;20490;-57
2022/08/14 07:19:49;;;;;;;12.52;8.70;;;;;;;32.41;34.43;98749.72;5070848;28;20475;-56
2022/08/14 07:22:15;;;;;;;18.00;9.32;;;;;;;31.83;35.95;98751.00;5073350;28;20376;-57
2022/08/14 07:24:40;;;;;;;12.65;9.07;;;;;;;32.43;34.65;98739.03;5073104;28;20048;-57
2022/08/14 07:27:06;;;;;;;13.73;9.90;;;;;;;30.97;37.64;98737.03;5081874;28;20044;-56
2022/08/14 07:29:31;;;;;;;10.65;9.05;;;;;;;31.76;36.38;98734.38;5072627;28;20028;-56
2022/08/14 07:31:57;;;;;;;13.40;9.38;;;;;;;30.99;37.83;98737.44;5073254;28;20031;-57
2022/08/14 07:34:23;;;;;;;12.00;9.25;;;;;;;30.42;38.69;98739.97;5075009;28;20453;-56
2022/08/14 07:36:48;;;;;;;13.23;9.55;;;;;;;29.60;39.94;98740.16;5066758;28;20047;-55
2022/08/14 07:39:13;;;;;;;11.80;10.38;;;;;;;30.48;38.58;98736.44;5073057;28;20032;-57
2022/08/14 07:41:39;;;;;;;14.90;10.10;;;;;;;31.05;38.15;98733.13;5072930;28;20032;-56
2022/08/14 07:44:04;;;;;;;14.23;9.70;;;;;;;29.78;40.06;98741.13;5072954;28;20094;-56
2022/08/14 07:46:30;;;;;;;13.63;10.27;;;;;;;30.01;39.53;98737.34;5072807;28;20074;-56
2022/08/14 07:48:55;;;;;;;13.52;11.02;;;;;;;29.78;39.86;98738.38;5072499;28;20105;-56
2022/08/14 07:51:21;;;;;;;15.18;10.73;;;;;;;29.18;41.58;98744.09;5079219;28;20064;-56
2022/08/14 07:53:46;;;;;;;11.93;10.30;;;;;;;30.39;39.12;98741.53;5072539;28;20024;-56
2022/08/14 07:56:12;;;;;;;14.20;10.73;;;;;;;29.79;39.74;98753.75;5072488;28;20020;-56
2022/08/14 07:58:37;;;;;;;13.13;10.98;;;;;;;29.79;40.26;98745.47;5071380;28;20055;-56
2022/08/14 08:01:04;;;;;;;21.05;11.18;;;;;;;29.27;41.05;98749.31;5072555;28;20524;-57
2022/08/14 08:03:31;;;;;;;13.38;10.57;;;;;;;29.71;41.00;98740.28;5070955;28;20074;-57
2022/08/14 08:05:56;;;;;;;15.00;11.15;;;;;;;29.27;41.00;98739.06;5072411;28;20439;-57
2022/08/14 08:08:22;;;;;;;20.55;11.48;;;;;;;29.77;41.41;98738.75;5054231;28;20051;-57
2022/08/14 08:10:48;;;;;;;16.65;10.07;;;;;;;29.52;40.95;98738.50;5054217;28;20028;-57
2022/08/14 08:13:17;;;;;;;12.98;10.40;;;;;;;29.71;40.71;98735.56;5072358;28;20036;-57
2022/08/14 08:16:07;;;;;;;16.65;10.07;;;;;;;30.20;39.81;98736.25;5072916;28;20417;-57
2022/08/14 08:18:33;;;;;;;13.02;10.07;;;;;;;30.00;39.76;98738.50;5072086;28;20038;-57
2022/08/14 08:20:58;;;;;;;15.05;10.32;;;;;;;29.37;41.06;98743.91;5071738;28;20024;-57
2022/08/14 08:23:25;;;;;;;16.10;11.20;;;;;;;29.94;40.56;98746.38;5072007;28;20383;-57
2022/08/14 08:25:51;;;;;;;13.13;10.55;;;;;;;28.28;42.89;98734.72;5071990;28;20081;-57
2022/08/14 08:28:20;;;;;;;11.98;10.27;;;;;;;29.73;40.44;98735.16;5072101;28;20032;-58
2022/08/14 08:30:51;;;;;;;14.02;10.35;;;;;;;29.86;40.97;98723.44;5076511;28;20024;-57
2022/08/14 08:33:20;;;;;;;15.57;11.30;;;;;;;30.12;39.81;98724.38;5072027;28;20107;-57
2022/08/14 08:35:45;;;;;;;13.77;10.00;;;;;;;30.31;39.09;98713.06;5071595;28;20034;-57
2022/08/14 08:38:16;;;;;;;16.35;11.13;;;;;;;28.40;42.98;98712.41;5071931;28;20032;-57
2022/08/14 08:40:43;;;;;;;12.93;10.57;;;;;;;28.34;43.74;98710.38;5072210;28;20111;-56
2022/08/14 08:43:29;;;;;;;12.32;10.23;;;;;;;29.97;40.49;98714.41;5071733;28;20028;-56
2022/08/14 08:46:08;;;;;;;16.17;10.95;;;;;;;30.15;39.80;98715.31;5071829;28;20039;-56
2022/08/14 08:48:47;;;;;;;15.63;10.63;;;;;;;30.73;38.88;98717.19;5060104;28;20123;-57
2022/08/14 08:51:39;;;;;;;12.63;10.13;;;;;;;30.68;38.85;98709.28;5071430;28;20040;-57
2022/08/14 08:54:12;;;;;;;12.00;9.80;;;;;;;30.90;38.64;98699.09;5070237;28;20710;-57
2022/08/14 08:56:42;;;;;;;14.45;10.15;;;;;;;31.24;37.65;98706.25;5071899;28;20082;-57
2022/08/14 08:59:34;;;;;;;13.07;10.15;;;;;;;29.80;40.05;98713.91;5071872;28;20078;-57
2022/08/14 09:02:05;;;;;;;13.48;10.00;;;;;;;30.48;39.13;98699.72;5071093;28;20064;-57
2022/08/14 09:04:40;;;;;;;12.57;10.38;;;;;;;28.62;43.09;98698.16;5071026;28;20036;-56
2022/08/14 09:07:06;;;;;;;12.35;9.98;;;;;;;29.21;41.56;98690.94;5074873;28;20037;-57
2022/08/14 09:09:31;;;;;;;18.00;10.70;;;;;;;28.92;41.70;98698.88;5083243;28;20031;-57
2022/08/14 09:11:58;;;;;;;12.95;10.25;;;;;;;29.96;40.17;98685.22;5071549;28;20021;-57
2022/08/14 09:14:30;;;;;;;13.70;9.95;;;;;;;28.62;41.96;98682.41;5071511;28;20021;-57
2022/08/14 09:16:56;;;;;;;13.77;10.20;;;;;;;29.28;41.17;98679.97;5071550;28;20404;-57
2022/08/14 09:19:21;;;;;;;14.43;9.68;;;;;;;29.27;41.07;98686.63;5071076;28;20125;-57
2022/08/14 09:21:47;;;;;;;12.25;9.38;;;;;;;29.13;40.63;98684.56;5071499;28;20032;-56
2022/08/14 09:24:13;;;;;;;14.32;9.85;;;;;;;29.52;40.05;98683.31;5075906;28;20476;-56
2022/08/14 09:26:38;;;;;;;13.95;9.43;;;;;;;29.79;39.72;98670.13;5071540;28;20071;-57
2022/08/14 09:29:04;;;;;;;12.13;10.00;;;;;;;30.15;38.99;98679.38;5071060;28;20037;-57
2022/08/14 09:31:29;;;;;;;16.80;9.25;;;;;;;30.50;39.10;98669.69;5071341;28;20019;-57
2022/08/14 09:34:16;;;;;;;12.57;9.88;;;;;;;31.01;37.91;98660.38;5069781;28;20463;-56
2022/08/14 09:36:45;;;;;;;12.85;9.50;;;;;;;30.23;38.52;98664.44;5071013;28;20436;-57
2022/08/14 09:39:29;;;;;;;17.63;10.18;;;;;;;29.93;39.11;98652.81;5069899;28;20043;-57
2022/08/14 09:42:09;;;;;;;14.13;9.13;;;;;;;29.04;40.17;98665.50;5071316;28;20041;-56
2022/08/14 09:44:44;;;;;;;13.07;9.20;;;;;;;29.87;39.09;98664.22;5058265;28;20032;-56
2022/08/14 09:47:10;;;;;;;12.85;9.63;;;;;;;29.61;39.44;98658.94;5081056;28;20031;-56
2022/08/14 09:49:36;;;;;;;13.45;9.60;;;;;;;29.23;40.29;98649.94;5073263;28;20028;-57
2022/08/14 09:52:09;;;;;;;14.55;9.15;;;;;;;29.58;38.91;98641.16;5073607;28;20052;-56
2022/08/14 09:55:01;;;;;;;15.63;8.95;;;;;;;29.96;38.64;98641.03;5074875;28;20107;-56
2022/08/14 09:57:29;;;;;;;14.48;8.75;;;;;;;29.74;39.19;98638.13;5073920;28;20177;-56
2022/08/14 09:59:54;;;;;;;11.27;8.32;;;;;;;31.68;36.08;98641.41;5078577;28;20421;-56
2022/08/14 10:02:30;;;;;;;12.15;8.60;;;;;;;29.78;38.12;98641.72;5074563;28;20024;-56
2022/08/14 10:05:08;;;;;;;18.35;9.60;;;;;;;30.04;38.19;98634.34;5073070;28;20036;-56
2022/08/14 10:07:52;;;;;;;11.25;8.50;;;;;;;31.33;36.63;98631.94;5074654;28;20123;-57
2022/08/14 10:10:34;;;;;;;16.08;8.73;;;;;;;29.73;37.44;98628.28;5074838;28;20043;-56
2022/08/14 10:13:04;;;;;;;13.77;8.00;;;;;;;31.01;36.03;98629.94;5074724;28;20025;-56
2022/08/14 10:15:31;;;;;;;9.00;7.20;;;;;;;31.97;35.20;98625.53;5074778;28;20021;-56
2022/08/14 10:18:16;;;;;;;10.15;7.57;;;;;;;31.25;35.72;98622.03;5074586;28;20028;-56
2022/08/14 10:21:04;;;;;;;14.48;7.60;;;;;;;32.26;34.52;98631.75;5073861;28;20471;-56
2022/08/14 10:23:42;;;;;;;12.52;7.95;;;;;;;29.23;38.40;98622.34;5074727;28;20024;-55
2022/08/14 10:26:09;;;;;;;9.18;7.35;;;;;;;30.54;34.32;98620.75;5073369;28;20382;-55
2022/08/14 10:28:46;;;;;;;10.63;7.60;;;;;;;30.54;35.00;98620.75;5074434;28;20086;-56
2022/08/14 10:31:32;;;;;;;7.95;6.55;;;;;;;30.51;34.50;98616.00;5074079;28;20128;-56
2022/08/14 10:34:07;;;;;;;11.10;7.32;;;;;;;31.28;34.35;98612.94;5074233;28;20027;-57
2022/08/14 10:36:34;;;;;;;10.68;6.85;;;;;;;31.68;33.07;98611.72;5073764;28;20052;-56
2022/08/14 10:39:02;;;;;;;10.32;7.15;;;;;;;31.91;32.47;98618.78;5073865;28;20471;-56
2022/08/14 10:41:39;;;;;;;9.45;6.45;;;;;;;31.13;33.41;98607.41;5074023;28;20037;-56
2022/08/14 10:44:15;;;;;;;12.30;7.10;;;;;;;29.96;35.19;98607.88;5073873;28;20032;-55
2022/08/14 10:46:43;;;;;;;8.43;6.88;;;;;;;31.46;33.07;98602.66;5076448;28;20025;-56
2022/08/14 10:49:17;;;;;;;8.63;6.70;;;;;;;30.58;32.25;98599.44;5073760;28;20479;-55
2022/08/14 10:52:06;;;;;;;8.60;5.53;;;;;;;30.95;31.79;98585.28;5073553;28;20055;-56
2022/08/14 10:54:32;;;;;;;10.52;6.80;;;;;;;30.51;33.47;98580.84;5072703;28;20429;-55
2022/08/14 10:57:23;;;;;;;9.93;6.65;;;;;;;30.55;33.02;98569.78;5074291;28;20089;-56
2022/08/14 10:59:50;;;;;;;9.02;7.38;;;;;;;30.93;32.92;98565.50;5073515;28;20098;-56
2022/08/14 11:02:32;;;;;;;10.57;6.78;;;;;;;31.36;32.58;98565.47;5073528;28;20025;-59
2022/08/14 11:05:13;;;;;;;10.95;7.13;;;;;;;30.70;33.63;98554.81;5076999;28;20049;-55
2022/08/14 11:07:41;;;;;;;12.45;6.53;;;;;;;30.17;33.80;98552.69;5080761;28;20032;-55
2022/08/14 11:10:11;;;;;;;9.45;7.20;;;;;;;30.41;34.06;98550.41;5078574;28;20033;-56
2022/08/14 11:12:47;;;;;;;10.77;6.78;;;;;;;32.27;31.56;98550.16;5076166;28;20029;-54
2022/08/14 11:15:14;;;;;;;7.68;6.18;;;;;;;33.02;30.33;98534.97;5075762;28;20025;-56
2022/08/14 11:17:40;;;;;;;7.60;6.45;;;;;;;32.29;30.52;98530.34;5072891;28;20072;-56
2022/08/14 11:20:07;;;;;;;10.85;6.18;;;;;;;31.99;31.52;98535.25;5072417;28;20036;-55
2022/08/14 11:22:32;;;;;;;11.70;6.47;;;;;;;31.85;31.60;98540.81;5080806;28;20032;-56
2022/08/14 11:25:04;;;;;;;9.73;6.45;;;;;;;31.28;31.77;98538.22;5074812;28;20020;-55
2022/08/14 11:27:30;;;;;;;8.30;6.45;;;;;;;30.91;32.84;98536.66;5073059;28;20509;-55
2022/08/14 11:29:59;;;;;;;11.38;6.88;;;;;;;30.40;34.00;98532.22;5071450;28;20021;-55
2022/08/14 11:32:24;;;;;;;;;;;;;;;30.94;32.97;98530.34;5078346;28;20020;-56
2022/08/14 11:34:52;;;;;;;11.35;6.85;;;;;;;31.75;31.81;98525.03;5072618;28;19922;-56
2022/08/14 11:37:17;;;;;;;8.77;6.85;;;;;;;29.58;34.27;98527.97;5078688;28;20043;-56
2022/08/14 11:39:43;;;;;;;10.65;6.88;;;;;;;30.36;32.71;98534.22;5072867;28;20378;-56
2022/08/14 11:42:19;;;;;;;9.48;6.70;;;;;;;31.10;31.91;98527.16;5072209;28;20032;-57
2022/08/14 11:44:44;;;;;;;10.50;6.35;;;;;;;31.89;31.50;98524.19;5072853;28;20040;-54
2022/08/14 11:47:18;;;;;;;11.00;6.10;;;;;;;31.69;31.37;98521.13;5071564;28;20371;-56
2022/08/14 11:49:43;;;;;;;9.32;6.25;;;;;;;30.98;31.71;98511.75;5072499;28;20024;-57